createdAt,value
2023-05-25T00:01:44.108Z,5.40
2023-05-25T00:04:11.701Z,5.13
2023-05-25T00:06:41.172Z,4.73
2023-05-25T00:09:08.437Z,5.30
2023-05-25T00:11:35.545Z,5.03
2023-05-25T00:14:02.722Z,4.70
2023-05-25T00:16:29.859Z,4.77
2023-05-25T00:18:57.857Z,5.47
2023-05-25T00:21:25.817Z,5.57
2023-05-25T00:23:52.830Z,4.90
2023-05-25T00:26:19.811Z,5.17
2023-05-25T00:28:46.751Z,5.82
2023-05-25T00:31:14.038Z,5.10
2023-05-25T00:33:41.350Z,5.40
2023-05-25T00:36:09.151Z,5.27
2023-05-25T00:38:36.273Z,5.97
2023-05-25T00:41:03.256Z,5.00
2023-05-25T00:43:30.229Z,4.73
2023-05-25T00:45:58.044Z,5.93
2023-05-25T00:48:26.551Z,4.83
2023-05-25T00:50:58.186Z,5.53
2023-05-25T00:53:25.613Z,5.13
2023-05-25T00:56:14.325Z,5.27
2023-05-25T00:58:42.998Z,4.60
2023-05-25T01:01:13.252Z,5.50
2023-05-25T01:03:45.845Z,4.80
2023-05-25T01:06:15.909Z,5.20
2023-05-25T01:08:49.100Z,6.10
2023-05-25T01:11:19.574Z,5.03
2023-05-25T01:13:47.909Z,5.50
2023-05-25T01:16:16.751Z,4.90
2023-05-25T01:18:48.173Z,5.47
2023-05-25T01:21:29.445Z,5.37
2023-05-25T01:24:13.818Z,5.50
2023-05-25T01:26:47.301Z,5.05
2023-05-25T01:29:16.077Z,5.60
2023-05-25T01:31:45.573Z,5.60
2023-05-25T01:34:14.020Z,5.50
2023-05-25T01:36:41.763Z,5.43
2023-05-25T01:39:11.144Z,6.53
2023-05-25T01:41:38.340Z,6.20
2023-05-25T01:44:07.751Z,6.20
2023-05-25T01:46:39.451Z,6.60
2023-05-25T01:49:28.551Z,6.40
2023-05-25T01:52:04.154Z,7.30
2023-05-25T01:54:38.426Z,5.77
2023-05-25T01:57:10.267Z,7.00
2023-05-25T01:59:38.475Z,6.70
2023-05-25T02:02:06.874Z,7.23
2023-05-25T02:04:34.921Z,6.97
2023-05-25T02:07:04.272Z,6.37
2023-05-25T02:09:31.348Z,7.10
2023-05-25T02:11:58.602Z,7.70
2023-05-25T02:14:26.172Z,7.10
2023-05-25T02:16:53.474Z,7.60
2023-05-25T02:19:20.666Z,6.97
2023-05-25T02:21:47.627Z,8.17
2023-05-25T02:24:14.810Z,8.37
2023-05-25T02:26:41.908Z,7.70
2023-05-25T02:29:08.925Z,7.60
2023-05-25T02:31:36.107Z,9.70
2023-05-25T02:34:03.384Z,7.63
2023-05-25T02:36:30.432Z,8.40
2023-05-25T02:38:57.339Z,10.67
2023-05-25T02:41:26.378Z,10.10
2023-05-25T02:43:53.837Z,10.53
2023-05-25T02:46:21.099Z,11.53
2023-05-25T02:48:48.201Z,12.60
2023-05-25T02:51:15.192Z,14.07
2023-05-25T02:53:42.433Z,13.87
2023-05-25T02:56:11.003Z,13.90
2023-05-25T02:58:38.860Z,14.20
2023-05-25T03:01:06.360Z,15.40
2023-05-25T03:03:33.539Z,15.33
2023-05-25T03:06:00.820Z,15.47
2023-05-25T03:08:27.793Z,15.63
2023-05-25T03:10:54.866Z,15.70
2023-05-25T03:13:21.897Z,15.50
2023-05-25T03:15:48.909Z,15.13
2023-05-25T03:18:16.310Z,14.73
2023-05-25T03:20:44.103Z,15.77
2023-05-25T03:23:11.221Z,14.90
2023-05-25T03:25:38.176Z,14.47
2023-05-25T03:28:05.288Z,15.13
2023-05-25T03:30:32.274Z,15.50
2023-05-25T03:32:59.287Z,15.73
2023-05-25T03:35:26.304Z,13.50
2023-05-25T03:37:53.348Z,15.60
2023-05-25T03:40:20.528Z,14.30
2023-05-25T03:42:47.601Z,13.30
2023-05-25T03:45:14.650Z,12.90
2023-05-25T03:47:41.595Z,11.40
2023-05-25T03:50:08.960Z,12.93
2023-05-25T03:52:36.279Z,13.23
2023-05-25T03:55:05.155Z,13.50
2023-05-25T03:57:32.046Z,13.60
2023-05-25T03:59:59.023Z,13.30
2023-05-25T04:02:26.675Z,13.27
2023-05-25T04:04:53.996Z,13.20
2023-05-25T04:07:21.011Z,13.80
2023-05-25T04:09:48.070Z,12.83
2023-05-25T04:12:14.944Z,13.10
2023-05-25T04:14:42.829Z,12.30
2023-05-25T04:17:09.868Z,12.53
2023-05-25T04:19:36.889Z,12.57
2023-05-25T04:22:04.491Z,12.87
2023-05-25T04:24:32.690Z,12.57
2023-05-25T04:27:00.001Z,12.70
2023-05-25T04:29:27.146Z,12.10
2023-05-25T04:31:54.853Z,12.23
2023-05-25T04:34:21.853Z,11.90
2023-05-25T04:36:49.551Z,11.20
2023-05-25T04:39:16.595Z,12.80
2023-05-25T04:41:44.224Z,13.00
2023-05-25T04:44:11.435Z,13.27
2023-05-25T04:46:39.165Z,13.00
2023-05-25T04:49:08.634Z,12.80
2023-05-25T04:51:36.113Z,11.87
2023-05-25T04:54:03.179Z,12.20
2023-05-25T04:56:30.104Z,11.70
2023-05-25T04:58:56.996Z,13.73
2023-05-25T05:01:24.084Z,12.03
2023-05-25T05:03:51.107Z,12.93
2023-05-25T05:06:18.193Z,12.50
2023-05-25T05:08:45.145Z,13.07
2023-05-25T05:11:12.003Z,12.50
2023-05-25T05:13:38.871Z,12.73
2023-05-25T05:16:06.651Z,12.83
2023-05-25T05:18:33.638Z,13.00
2023-05-25T05:21:00.562Z,13.77
2023-05-25T05:23:27.512Z,12.13
2023-05-25T05:25:54.423Z,12.33
2023-05-25T05:28:21.473Z,12.83
2023-05-25T05:30:48.400Z,13.10
2023-05-25T05:33:19.854Z,11.77
2023-05-25T05:35:47.151Z,12.47
2023-05-25T05:38:14.060Z,13.70
2023-05-25T05:40:40.983Z,14.63
2023-05-25T05:43:09.890Z,12.70
2023-05-25T05:45:36.828Z,12.33
2023-05-25T05:48:04.877Z,13.13
2023-05-25T05:50:31.987Z,12.07
2023-05-25T05:52:58.809Z,11.13
2023-05-25T05:55:26.526Z,11.77
2023-05-25T05:57:53.562Z,11.70
2023-05-25T06:00:20.775Z,12.27
2023-05-25T06:02:47.770Z,13.30
2023-05-25T06:05:15.103Z,11.97
2023-05-25T06:07:44.685Z,12.40
2023-05-25T06:10:11.806Z,13.10
2023-05-25T06:12:38.730Z,11.93
2023-05-25T06:15:06.592Z,12.37
2023-05-25T06:17:34.169Z,12.80
2023-05-25T06:20:01.293Z,11.70
2023-05-25T06:22:29.261Z,11.87
2023-05-25T06:24:56.208Z,12.77
2023-05-25T06:27:23.596Z,12.33
2023-05-25T06:29:50.601Z,11.47
2023-05-25T06:32:17.784Z,12.20
2023-05-25T06:34:44.981Z,13.00
2023-05-25T06:37:11.999Z,13.00
2023-05-25T06:39:40.682Z,12.33
2023-05-25T06:42:07.829Z,11.53
2023-05-25T06:44:34.952Z,12.80
2023-05-25T06:47:02.847Z,12.00
2023-05-25T06:49:30.648Z,12.73
2023-05-25T06:51:57.564Z,13.13
2023-05-25T06:54:24.470Z,12.77
2023-05-25T06:56:51.849Z,13.30
2023-05-25T06:59:19.162Z,12.10
2023-05-25T07:01:49.824Z,12.80
2023-05-25T07:04:16.867Z,11.90
2023-05-25T07:06:43.843Z,11.63
2023-05-25T07:09:11.159Z,12.40
2023-05-25T07:11:40.600Z,10.10
2023-05-25T07:14:07.491Z,10.93
2023-05-25T07:16:34.428Z,11.97
2023-05-25T07:19:02.671Z,11.33
2023-05-25T07:21:33.549Z,12.20
2023-05-25T07:24:00.799Z,11.80
2023-05-25T07:26:28.001Z,12.00
2023-05-25T07:28:55.032Z,11.87
2023-05-25T07:31:22.571Z,11.10
2023-05-25T07:33:49.924Z,10.90
2023-05-25T07:36:17.349Z,10.80
2023-05-25T07:38:44.259Z,11.43
2023-05-25T07:41:13.480Z,11.77
2023-05-25T07:43:40.563Z,11.80
2023-05-25T07:46:07.385Z,12.00
2023-05-25T07:48:34.357Z,11.63
2023-05-25T07:51:01.302Z,11.03
2023-05-25T07:53:28.309Z,12.53
2023-05-25T07:55:55.141Z,13.33
2023-05-25T07:58:22.008Z,12.30
2023-05-25T08:00:50.176Z,12.00
2023-05-25T08:03:17.989Z,12.33
2023-05-25T08:05:45.154Z,12.00
2023-05-25T08:08:12.272Z,12.07
2023-05-25T08:10:39.133Z,11.63
2023-05-25T08:13:06.024Z,11.20
2023-05-25T08:15:32.918Z,12.07
2023-05-25T08:17:59.889Z,10.93
2023-05-25T08:20:26.906Z,10.90
2023-05-25T08:22:54.721Z,12.03
2023-05-25T08:25:21.985Z,10.60
2023-05-25T08:27:49.161Z,11.13
2023-05-25T08:30:16.054Z,11.20
2023-05-25T08:32:42.989Z,11.47
2023-05-25T08:35:10.236Z,11.77
2023-05-25T08:37:37.098Z,11.33
2023-05-25T08:40:04.646Z,11.20
2023-05-25T08:42:31.460Z,12.13
2023-05-25T08:44:58.998Z,10.13
2023-05-25T08:47:33.057Z,11.70
2023-05-25T08:50:01.695Z,11.23
2023-05-25T08:52:33.455Z,10.10
2023-05-25T08:55:05.136Z,10.27
2023-05-25T08:57:54.184Z,11.37
2023-05-25T09:00:28.211Z,11.30
2023-05-25T09:03:18.271Z,10.70
2023-05-25T09:05:46.152Z,10.97
2023-05-25T09:08:13.791Z,10.87
2023-05-25T09:10:41.254Z,10.33
2023-05-25T09:15:37.927Z,10.30
2023-05-25T09:18:05.422Z,11.50
2023-05-25T09:20:32.662Z,11.93
2023-05-25T09:23:00.184Z,10.17
2023-05-25T09:25:28.750Z,11.00
2023-05-25T09:28:00.173Z,11.20
2023-05-25T09:30:32.990Z,10.00
2023-05-25T09:33:13.270Z,11.00
2023-05-25T09:35:40.956Z,11.03
2023-05-25T09:38:08.115Z,10.97
2023-05-25T09:40:36.070Z,12.20
2023-05-25T09:43:04.197Z,10.23
2023-05-25T09:45:31.813Z,10.17
2023-05-25T09:47:59.879Z,10.47
2023-05-25T09:50:30.032Z,10.43
2023-05-25T09:53:02.465Z,10.70
2023-05-25T09:55:44.006Z,10.40
2023-05-25T09:58:17.047Z,10.60
2023-05-25T10:00:46.360Z,11.00
2023-05-25T10:03:15.497Z,11.00
2023-05-25T10:05:42.538Z,10.97
2023-05-25T10:08:10.892Z,11.13
2023-05-25T10:10:39.158Z,11.53
2023-05-25T10:13:09.541Z,11.10
2023-05-25T10:15:40.101Z,11.10
2023-05-25T10:18:09.475Z,11.27
2023-05-25T10:20:36.911Z,10.70
2023-05-25T10:23:13.271Z,10.40
2023-05-25T10:25:47.661Z,11.20
2023-05-25T10:28:22.009Z,12.10
2023-05-25T10:30:51.802Z,12.80
2023-05-25T10:33:20.548Z,11.77
2023-05-25T10:36:02.516Z,12.23
2023-05-25T10:38:36.630Z,12.07
2023-05-25T10:41:05.838Z,11.97
2023-05-25T10:43:32.931Z,13.40
2023-05-25T10:46:03.115Z,13.10
2023-05-25T10:48:40.301Z,13.83
2023-05-25T10:51:09.330Z,13.63
2023-05-25T10:53:38.387Z,13.87
2023-05-25T10:56:07.410Z,12.30
2023-05-25T10:58:34.522Z,14.03
2023-05-25T11:01:08.672Z,13.97
2023-05-25T11:03:45.338Z,13.10
2023-05-25T11:06:16.564Z,13.80
2023-05-25T11:08:56.277Z,11.90
2023-05-25T11:11:43.282Z,12.53
2023-05-25T11:14:23.823Z,13.67
2023-05-25T11:17:24.671Z,13.00
2023-05-25T11:19:54.044Z,12.40
2023-05-25T11:22:22.842Z,11.60
2023-05-25T11:24:53.849Z,11.90
2023-05-25T11:27:25.036Z,11.77
2023-05-25T11:29:53.002Z,11.30
2023-05-25T11:32:21.455Z,12.53
2023-05-25T11:34:48.897Z,11.63
2023-05-25T11:37:22.826Z,11.50
2023-05-25T11:39:53.984Z,10.97
2023-05-25T11:42:22.363Z,9.97
2023-05-25T11:44:49.546Z,10.60
2023-05-25T11:47:23.095Z,9.10
2023-05-25T11:49:50.660Z,10.17
2023-05-25T11:52:19.144Z,10.63
2023-05-25T11:54:46.930Z,10.43
2023-05-25T11:57:18.519Z,10.10
2023-05-25T12:00:01.253Z,10.37
2023-05-25T12:02:28.263Z,10.00
2023-05-25T12:05:03.880Z,11.17
2023-05-25T12:07:32.079Z,10.77
2023-05-25T12:10:10.272Z,10.37
2023-05-25T12:12:44.089Z,9.47
2023-05-25T12:15:13.748Z,10.50
2023-05-25T12:17:45.570Z,10.40
2023-05-25T12:20:15.348Z,10.70
2023-05-25T12:22:43.807Z,10.57
2023-05-25T12:25:12.604Z,10.10
2023-05-25T12:27:42.765Z,9.67
2023-05-25T12:30:10.633Z,9.70
2023-05-25T12:33:02.854Z,9.50
2023-05-25T12:35:43.895Z,9.27
2023-05-25T12:38:12.408Z,9.50
2023-05-25T12:40:39.363Z,10.03
2023-05-25T12:43:06.384Z,9.07
2023-05-25T12:45:33.311Z,8.73
2023-05-25T12:48:02.300Z,9.93
2023-05-25T12:50:29.646Z,9.27
2023-05-25T12:53:04.239Z,8.63
2023-05-25T12:55:34.366Z,9.40
2023-05-25T12:58:04.761Z,9.27
2023-05-25T13:00:40.194Z,10.23
2023-05-25T13:03:07.805Z,11.20
2023-05-25T13:05:37.797Z,9.90
2023-05-25T13:08:06.148Z,12.00
2023-05-25T13:10:33.871Z,11.00
2023-05-25T13:13:01.008Z,12.10
2023-05-25T13:15:28.741Z,10.97
2023-05-25T13:18:00.365Z,8.70
2023-05-25T13:20:30.224Z,11.70
2023-05-25T13:22:57.436Z,11.73
2023-05-25T13:25:27.268Z,11.33
2023-05-25T13:27:55.190Z,10.83
2023-05-25T13:30:22.580Z,10.43
2023-05-25T13:32:51.620Z,12.00
2023-05-25T13:35:23.420Z,11.60
2023-05-25T13:37:51.447Z,11.37
2023-05-25T13:40:19.239Z,10.10
2023-05-25T13:42:46.339Z,11.57
2023-05-25T13:45:13.970Z,11.67
2023-05-25T13:47:43.651Z,11.90
2023-05-25T13:50:11.339Z,12.00
2023-05-25T13:52:38.470Z,10.63
2023-05-25T13:55:06.031Z,12.17
2023-05-25T13:57:33.075Z,10.43
2023-05-25T13:59:59.981Z,10.93
2023-05-25T14:02:27.113Z,11.07
2023-05-25T14:04:54.177Z,10.60
2023-05-25T14:07:21.245Z,11.10
2023-05-25T14:09:48.125Z,10.50
2023-05-25T14:12:15.114Z,10.37
2023-05-25T14:14:42.303Z,10.70
2023-05-25T14:17:09.247Z,10.50
2023-05-25T14:19:36.212Z,10.83
2023-05-25T14:22:13.219Z,11.17
2023-05-25T14:24:41.329Z,11.83
2023-05-25T14:27:08.438Z,10.80
2023-05-25T14:29:35.532Z,8.27
2023-05-25T14:32:02.648Z,10.87
2023-05-25T14:34:29.965Z,9.97
2023-05-25T14:36:56.858Z,10.10
2023-05-25T14:39:23.818Z,9.80
2023-05-25T14:41:50.755Z,9.43
2023-05-25T14:44:17.712Z,9.37
2023-05-25T14:46:44.724Z,8.63
2023-05-25T14:49:11.740Z,9.20
2023-05-25T14:51:38.804Z,8.93
2023-05-25T14:54:07.344Z,7.87
2023-05-25T14:56:34.719Z,7.90
2023-05-25T14:59:01.779Z,8.80
2023-05-25T15:01:29.576Z,8.03
2023-05-25T15:03:57.135Z,7.90
2023-05-25T15:06:24.280Z,7.30
2023-05-25T15:08:51.492Z,6.73
2023-05-25T15:11:18.601Z,8.27
2023-05-25T15:13:46.111Z,7.63
2023-05-25T15:16:13.692Z,7.63
2023-05-25T15:18:40.655Z,7.40
2023-05-25T15:21:07.596Z,9.00
2023-05-25T15:23:34.817Z,6.70
2023-05-25T15:26:04.283Z,8.70
2023-05-25T15:28:31.784Z,8.10
2023-05-25T15:31:02.297Z,7.90
2023-05-25T15:33:40.001Z,6.93
2023-05-25T15:36:15.801Z,7.33
2023-05-25T15:38:43.487Z,8.00
2023-05-25T15:41:11.533Z,6.70
2023-05-25T15:43:38.507Z,6.40
2023-05-25T15:46:05.469Z,6.67
2023-05-25T15:48:32.408Z,7.10
2023-05-25T15:50:59.432Z,7.20
2023-05-25T15:53:26.463Z,7.17
2023-05-25T15:55:53.356Z,5.87
2023-05-25T15:58:20.300Z,7.10
2023-05-25T16:00:47.306Z,7.50
2023-05-25T16:03:14.191Z,6.87
2023-05-25T16:05:41.217Z,6.83
2023-05-25T16:08:08.151Z,6.37
2023-05-25T16:10:35.154Z,6.43
2023-05-25T16:13:02.116Z,6.20
2023-05-25T16:15:29.045Z,6.60
2023-05-25T16:17:56.225Z,6.03
2023-05-25T16:20:23.262Z,6.03
2023-05-25T16:22:50.271Z,6.10
2023-05-25T16:25:17.349Z,6.83
2023-05-25T16:27:44.481Z,6.20
2023-05-25T16:30:13.315Z,6.33
2023-05-25T16:32:40.890Z,5.73
2023-05-25T16:35:08.368Z,6.60
2023-05-25T16:37:35.479Z,6.00
2023-05-25T16:40:02.498Z,6.13
2023-05-25T16:42:29.453Z,6.30
2023-05-25T16:44:56.462Z,6.30
2023-05-25T16:47:23.512Z,5.53
2023-05-25T16:49:50.712Z,5.80
2023-05-25T16:52:17.722Z,5.90
2023-05-25T16:54:44.697Z,6.10
2023-05-25T16:57:12.258Z,6.13
2023-05-25T16:59:39.627Z,5.30
2023-05-25T17:02:07.080Z,6.00
2023-05-25T17:04:34.034Z,5.97
2023-05-25T17:07:01.047Z,6.80
2023-05-25T17:09:27.996Z,5.77
2023-05-25T17:11:59.483Z,5.90
2023-05-25T17:14:26.756Z,6.50
2023-05-25T17:16:54.025Z,5.47
2023-05-25T17:19:21.172Z,6.93
2023-05-25T17:21:48.348Z,5.50
2023-05-25T17:24:15.499Z,6.40
2023-05-25T17:26:42.571Z,5.93
2023-05-25T17:29:09.674Z,7.00
2023-05-25T17:31:36.609Z,6.40
2023-05-25T17:34:03.704Z,6.27
2023-05-25T17:36:30.893Z,4.80
2023-05-25T17:38:58.095Z,5.60
2023-05-25T17:41:25.111Z,5.10
2023-05-25T17:43:52.290Z,5.70
2023-05-25T17:46:19.339Z,5.40
2023-05-25T17:48:49.225Z,5.33
2023-05-25T17:51:16.217Z,5.67
2023-05-25T17:53:43.339Z,5.80
2023-05-25T17:56:10.402Z,5.50
2023-05-25T17:58:38.162Z,5.00
2023-05-25T18:01:05.445Z,5.90
2023-05-25T18:03:32.549Z,5.60
2023-05-25T18:05:59.631Z,5.17
2023-05-25T18:08:26.502Z,5.60
2023-05-25T18:10:53.369Z,5.57
2023-05-25T18:13:20.273Z,6.20
2023-05-25T18:15:47.284Z,5.53
2023-05-25T18:18:16.450Z,5.40
2023-05-25T18:20:43.500Z,5.80
2023-05-25T18:23:10.382Z,5.43
2023-05-25T18:25:37.345Z,5.70
2023-05-25T18:28:04.351Z,5.20
2023-05-25T18:30:31.246Z,4.90
2023-05-25T18:32:58.255Z,5.27
2023-05-25T18:35:25.238Z,5.70
2023-05-25T18:37:52.107Z,5.10
2023-05-25T18:40:18.985Z,5.90
2023-05-25T18:42:45.920Z,5.60
2023-05-25T18:45:12.878Z,5.13
2023-05-25T18:47:39.870Z,5.53
2023-05-25T18:50:07.190Z,5.13
2023-05-25T18:52:34.044Z,4.80
2023-05-25T18:55:01.494Z,5.33
2023-05-25T18:57:28.871Z,4.67
2023-05-25T18:59:55.955Z,5.20
2023-05-25T19:02:23.020Z,5.00
2023-05-25T19:04:50.098Z,5.33
2023-05-25T19:07:17.058Z,5.17
2023-05-25T19:09:44.115Z,5.37
2023-05-25T19:12:11.082Z,4.67
2023-05-25T19:14:38.046Z,5.27
2023-05-25T19:17:05.158Z,5.03
2023-05-25T19:19:32.252Z,6.60
2023-05-25T19:21:59.165Z,5.37
2023-05-25T19:24:26.153Z,5.87
2023-05-25T19:26:53.046Z,5.23
2023-05-25T19:29:20.169Z,5.67
2023-05-25T19:31:47.052Z,5.90
2023-05-25T19:34:14.139Z,6.23
2023-05-25T19:36:41.084Z,5.70
2023-05-25T19:39:08.109Z,6.20
2023-05-25T19:41:37.636Z,5.77
2023-05-25T19:44:04.682Z,5.57
2023-05-25T19:46:31.727Z,5.47
2023-05-25T19:48:59.071Z,5.30
2023-05-25T19:51:26.120Z,6.43
2023-05-25T19:53:53.744Z,6.10
2023-05-25T19:56:21.356Z,6.37
2023-05-25T19:58:48.603Z,5.70
2023-05-25T20:01:15.822Z,6.20
2023-05-25T20:03:44.717Z,5.80
2023-05-25T20:06:11.854Z,6.80
2023-05-25T20:08:38.865Z,7.10
2023-05-25T20:11:05.876Z,7.80
2023-05-25T20:13:32.883Z,7.70
2023-05-25T20:15:59.859Z,7.80
2023-05-25T20:18:26.844Z,8.57
2023-05-25T20:20:54.956Z,9.10
2023-05-25T20:23:21.863Z,10.60
2023-05-25T20:25:48.746Z,9.50
2023-05-25T20:28:15.673Z,9.43
2023-05-25T20:30:42.626Z,9.33
2023-05-25T20:33:09.612Z,8.50
2023-05-25T20:35:37.524Z,9.70
2023-05-25T20:38:04.664Z,10.33
2023-05-25T20:40:31.793Z,10.90
2023-05-25T20:42:58.740Z,7.90
2023-05-25T20:45:25.980Z,10.30
2023-05-25T20:48:00.723Z,9.80
2023-05-25T20:50:28.625Z,10.07
2023-05-25T20:52:56.267Z,10.00
2023-05-25T20:55:23.407Z,9.43
2023-05-25T20:57:50.325Z,10.40
2023-05-25T21:00:17.534Z,10.10
2023-05-25T21:02:44.502Z,10.77
2023-05-25T21:05:11.500Z,11.03
2023-05-25T21:07:38.410Z,11.50
2023-05-25T21:10:05.838Z,10.27
2023-05-25T21:12:32.763Z,10.17
2023-05-25T21:14:59.629Z,10.00
2023-05-25T21:17:28.194Z,10.30
2023-05-25T21:19:55.119Z,10.23
2023-05-25T21:22:22.195Z,11.00
2023-05-25T21:24:50.022Z,10.90
2023-05-25T21:27:17.815Z,10.83
2023-05-25T21:29:44.638Z,10.70
2023-05-25T21:32:11.490Z,11.03
2023-05-25T21:34:38.344Z,12.20
2023-05-25T21:37:05.186Z,11.80
2023-05-25T21:39:32.040Z,11.97
2023-05-25T21:41:58.885Z,12.20
2023-05-25T21:44:25.832Z,11.77
2023-05-25T21:46:52.791Z,11.90
2023-05-25T21:49:19.746Z,12.30
2023-05-25T21:51:46.610Z,11.37
2023-05-25T21:54:13.433Z,11.80
2023-05-25T21:56:40.340Z,11.97
2023-05-25T21:59:07.215Z,11.80
2023-05-25T22:01:34.276Z,11.97
2023-05-25T22:04:01.470Z,11.90
2023-05-25T22:06:28.374Z,12.00
2023-05-25T22:08:55.284Z,11.10
2023-05-25T22:11:22.318Z,11.30
2023-05-25T22:13:49.206Z,12.00
2023-05-25T22:16:16.062Z,11.80
2023-05-25T22:18:43.190Z,11.30
2023-05-25T22:21:10.175Z,10.83
2023-05-25T22:23:37.356Z,12.20
2023-05-25T22:26:05.189Z,12.30
2023-05-25T22:28:32.299Z,12.30
2023-05-25T22:30:59.306Z,11.37
2023-05-25T22:33:26.456Z,11.93
2023-05-25T22:35:53.290Z,11.73
2023-05-25T22:38:20.135Z,12.23
2023-05-25T22:40:47.828Z,12.73
2023-05-25T22:43:15.402Z,12.50
2023-05-25T22:45:42.298Z,11.50
2023-05-25T22:48:10.982Z,12.10
2023-05-25T22:50:37.867Z,12.70
2023-05-25T22:53:05.005Z,13.10
2023-05-25T22:55:32.672Z,12.23
2023-05-25T22:57:59.514Z,13.33
2023-05-25T23:00:26.396Z,13.30
2023-05-25T23:02:53.397Z,12.40
2023-05-25T23:05:20.512Z,13.40
2023-05-25T23:07:47.522Z,12.30
2023-05-25T23:10:14.449Z,13.37
2023-05-25T23:12:41.496Z,14.13
2023-05-25T23:15:09.578Z,13.20
2023-05-25T23:17:36.549Z,11.57
2023-05-25T23:20:04.893Z,12.27
2023-05-25T23:22:31.797Z,12.93
2023-05-25T23:24:58.785Z,12.43
2023-05-25T23:27:25.942Z,13.70
2023-05-25T23:29:53.168Z,13.07
2023-05-25T23:32:20.123Z,11.80
2023-05-25T23:34:47.150Z,12.13
2023-05-25T23:37:14.210Z,14.33
2023-05-25T23:39:41.176Z,14.50
2023-05-25T23:42:08.198Z,13.63
2023-05-25T23:44:35.783Z,14.40
2023-05-25T23:47:02.802Z,14.10
2023-05-25T23:49:29.857Z,14.63
2023-05-25T23:51:56.942Z,14.50
2023-05-25T23:54:23.899Z,13.43
2023-05-25T23:56:51.651Z,13.00
2023-05-25T23:59:18.632Z,13.00
